sensor_id;sensor_type;location;lat;lon;timestamp;P1;durP1;ratioP1;P2;durP2;ratioP2
12892;SDS011;6514;48.606;9.222;2022-12-07T00:01:09;7.07;;;5.83;;
12892;SDS011;6514;48.606;9.222;2022-12-07T00:03:38;7.03;;;6.33;;
12892;SDS011;6514;48.606;9.222;2022-12-07T00:06:06;7.33;;;6.63;;
12892;SDS011;6514;48.606;9.222;2022-12-07T00:08:34;6.60;;;5.90;;
12892;SDS011;6514;48.606;9.222;2022-12-07T00:11:02;7.23;;;6.40;;
12892;SDS011;6514;48.606;9.222;2022-12-07T00:13:29;6.73;;;5.37;;
12892;SDS011;6514;48.606;9.222;2022-12-07T00:16:00;7.30;;;6.60;;
12892;SDS011;6514;48.606;9.222;2022-12-07T00:18:28;7.00;;;5.83;;
12892;SDS011;6514;48.606;9.222;2022-12-07T00:20:58;6.90;;;6.20;;
12892;SDS011;6514;48.606;9.222;2022-12-07T00:23:26;8.07;;;6.37;;
12892;SDS011;6514;48.606;9.222;2022-12-07T00:25:53;7.63;;;6.17;;
12892;SDS011;6514;48.606;9.222;2022-12-07T00:28:20;7.10;;;6.40;;
12892;SDS011;6514;48.606;9.222;2022-12-07T00:30:47;6.90;;;6.20;;
12892;SDS011;6514;48.606;9.222;2022-12-07T00:33:15;6.73;;;6.03;;
12892;SDS011;6514;48.606;9.222;2022-12-07T00:35:42;6.50;;;5.80;;
12892;SDS011;6514;48.606;9.222;2022-12-07T00:38:09;6.53;;;5.93;;
12892;SDS011;6514;48.606;9.222;2022-12-07T00:40:35;7.10;;;6.00;;
12892;SDS011;6514;48.606;9.222;2022-12-07T00:43:02;7.10;;;6.20;;
12892;SDS011;6514;48.606;9.222;2022-12-07T00:45:29;7.50;;;6.13;;
12892;SDS011;6514;48.606;9.222;2022-12-07T00:47:56;7.43;;;6.37;;
12892;SDS011;6514;48.606;9.222;2022-12-07T00:50:24;6.67;;;5.80;;
12892;SDS011;6514;48.606;9.222;2022-12-07T00:52:51;7.00;;;6.27;;
12892;SDS011;6514;48.606;9.222;2022-12-07T00:55:18;8.37;;;6.43;;
12892;SDS011;6514;48.606;9.222;2022-12-07T00:57:45;6.50;;;5.80;;
12892;SDS011;6514;48.606;9.222;2022-12-07T01:00:12;7.17;;;6.47;;
12892;SDS011;6514;48.606;9.222;2022-12-07T01:02:39;6.57;;;5.80;;
12892;SDS011;6514;48.606;9.222;2022-12-07T01:05:06;6.87;;;5.57;;
12892;SDS011;6514;48.606;9.222;2022-12-07T01:07:35;5.73;;;5.00;;
12892;SDS011;6514;48.606;9.222;2022-12-07T01:10:04;6.70;;;6.00;;
12892;SDS011;6514;48.606;9.222;2022-12-07T01:12:32;7.43;;;6.33;;
12892;SDS011;6514;48.606;9.222;2022-12-07T01:14:59;7.87;;;6.07;;
12892;SDS011;6514;48.606;9.222;2022-12-07T01:17:26;7.87;;;6.10;;
12892;SDS011;6514;48.606;9.222;2022-12-07T01:19:54;6.40;;;5.80;;
12892;SDS011;6514;48.606;9.222;2022-12-07T01:22:20;6.13;;;5.53;;
12892;SDS011;6514;48.606;9.222;2022-12-07T01:24:49;6.30;;;5.43;;
12892;SDS011;6514;48.606;9.222;2022-12-07T01:27:16;7.20;;;6.13;;
12892;SDS011;6514;48.606;9.222;2022-12-07T01:29:43;5.87;;;5.20;;
12892;SDS011;6514;48.606;9.222;2022-12-07T01:32:09;6.70;;;6.10;;
12892;SDS011;6514;48.606;9.222;2022-12-07T01:34:36;6.53;;;5.93;;
12892;SDS011;6514;48.606;9.222;2022-12-07T01:37:03;7.10;;;6.17;;
12892;SDS011;6514;48.606;9.222;2022-12-07T01:39:30;7.63;;;6.60;;
12892;SDS011;6514;48.606;9.222;2022-12-07T01:41:58;9.63;;;6.70;;
12892;SDS011;6514;48.606;9.222;2022-12-07T01:44:25;9.17;;;6.87;;
12892;SDS011;6514;48.606;9.222;2022-12-07T01:46:55;8.37;;;6.27;;
12892;SDS011;6514;48.606;9.222;2022-12-07T01:49:26;11.03;;;6.93;;
12892;SDS011;6514;48.606;9.222;2022-12-07T01:51:59;7.47;;;6.70;;
12892;SDS011;6514;48.606;9.222;2022-12-07T01:54:34;6.93;;;6.23;;
12892;SDS011;6514;48.606;9.222;2022-12-07T01:57:03;7.43;;;6.63;;
12892;SDS011;6514;48.606;9.222;2022-12-07T01:59:32;10.37;;;6.83;;
12892;SDS011;6514;48.606;9.222;2022-12-07T02:02:00;7.57;;;6.77;;
12892;SDS011;6514;48.606;9.222;2022-12-07T02:04:30;8.53;;;7.10;;
12892;SDS011;6514;48.606;9.222;2022-12-07T02:06:57;9.40;;;7.50;;
12892;SDS011;6514;48.606;9.222;2022-12-07T02:09:24;8.37;;;7.07;;
12892;SDS011;6514;48.606;9.222;2022-12-07T02:11:51;9.10;;;6.77;;
12892;SDS011;6514;48.606;9.222;2022-12-07T02:14:21;8.40;;;7.23;;
12892;SDS011;6514;48.606;9.222;2022-12-07T02:16:51;8.30;;;7.17;;
12892;SDS011;6514;48.606;9.222;2022-12-07T02:19:35;8.03;;;7.23;;
12892;SDS011;6514;48.606;9.222;2022-12-07T02:22:36;7.97;;;6.90;;
12892;SDS011;6514;48.606;9.222;2022-12-07T02:25:20;7.60;;;6.27;;
12892;SDS011;6514;48.606;9.222;2022-12-07T02:27:55;7.60;;;6.57;;
12892;SDS011;6514;48.606;9.222;2022-12-07T02:30:31;9.10;;;6.83;;
12892;SDS011;6514;48.606;9.222;2022-12-07T02:33:00;8.93;;;7.07;;
12892;SDS011;6514;48.606;9.222;2022-12-07T02:35:31;9.87;;;7.57;;
12892;SDS011;6514;48.606;9.222;2022-12-07T02:38:02;7.83;;;7.03;;
12892;SDS011;6514;48.606;9.222;2022-12-07T02:40:35;9.00;;;7.60;;
12892;SDS011;6514;48.606;9.222;2022-12-07T02:43:07;9.10;;;7.43;;
12892;SDS011;6514;48.606;9.222;2022-12-07T02:45:40;9.03;;;8.07;;
12892;SDS011;6514;48.606;9.222;2022-12-07T02:48:08;8.90;;;7.67;;
12892;SDS011;6514;48.606;9.222;2022-12-07T02:50:38;10.87;;;8.73;;
12892;SDS011;6514;48.606;9.222;2022-12-07T02:53:05;9.03;;;7.73;;
12892;SDS011;6514;48.606;9.222;2022-12-07T02:55:33;10.80;;;9.07;;
12892;SDS011;6514;48.606;9.222;2022-12-07T02:58:07;11.83;;;10.17;;
12892;SDS011;6514;48.606;9.222;2022-12-07T03:00:48;11.50;;;8.97;;
12892;SDS011;6514;48.606;9.222;2022-12-07T03:03:22;10.90;;;9.47;;
12892;SDS011;6514;48.606;9.222;2022-12-07T03:06:02;11.00;;;9.43;;
12892;SDS011;6514;48.606;9.222;2022-12-07T03:08:43;11.10;;;9.07;;
12892;SDS011;6514;48.606;9.222;2022-12-07T03:11:18;10.87;;;9.50;;
12892;SDS011;6514;48.606;9.222;2022-12-07T03:13:54;11.07;;;8.83;;
12892;SDS011;6514;48.606;9.222;2022-12-07T03:16:28;11.70;;;9.60;;
12892;SDS011;6514;48.606;9.222;2022-12-07T03:18:59;12.43;;;9.20;;
12892;SDS011;6514;48.606;9.222;2022-12-07T03:21:31;13.73;;;10.67;;
12892;SDS011;6514;48.606;9.222;2022-12-07T03:24:01;12.57;;;9.73;;
12892;SDS011;6514;48.606;9.222;2022-12-07T03:26:34;12.93;;;10.60;;
12892;SDS011;6514;48.606;9.222;2022-12-07T03:29:05;10.57;;;9.43;;
12892;SDS011;6514;48.606;9.222;2022-12-07T03:31:37;12.00;;;9.80;;
12892;SDS011;6514;48.606;9.222;2022-12-07T03:34:08;12.43;;;9.80;;
12892;SDS011;6514;48.606;9.222;2022-12-07T03:36:39;10.90;;;8.93;;
12892;SDS011;6514;48.606;9.222;2022-12-07T03:39:13;11.43;;;9.20;;
12892;SDS011;6514;48.606;9.222;2022-12-07T03:41:47;12.13;;;9.60;;
12892;SDS011;6514;48.606;9.222;2022-12-07T03:44:15;10.67;;;8.77;;
12892;SDS011;6514;48.606;9.222;2022-12-07T03:46:44;11.43;;;9.20;;
12892;SDS011;6514;48.606;9.222;2022-12-07T03:49:18;11.80;;;9.40;;
12892;SDS011;6514;48.606;9.222;2022-12-07T03:51:52;10.57;;;9.13;;
12892;SDS011;6514;48.606;9.222;2022-12-07T03:54:23;13.10;;;10.70;;
12892;SDS011;6514;48.606;9.222;2022-12-07T03:56:54;12.77;;;9.63;;
12892;SDS011;6514;48.606;9.222;2022-12-07T03:59:23;14.03;;;11.10;;
12892;SDS011;6514;48.606;9.222;2022-12-07T04:01:53;10.93;;;9.17;;
12892;SDS011;6514;48.606;9.222;2022-12-07T04:04:22;13.43;;;10.20;;
12892;SDS011;6514;48.606;9.222;2022-12-07T04:06:50;13.07;;;10.73;;
12892;SDS011;6514;48.606;9.222;2022-12-07T04:09:17;13.23;;;10.93;;
12892;SDS011;6514;48.606;9.222;2022-12-07T04:11:44;13.13;;;11.13;;
12892;SDS011;6514;48.606;9.222;2022-12-07T04:14:12;12.40;;;10.27;;
12892;SDS011;6514;48.606;9.222;2022-12-07T04:16:44;12.60;;;10.67;;
12892;SDS011;6514;48.606;9.222;2022-12-07T04:19:13;15.80;;;11.10;;
12892;SDS011;6514;48.606;9.222;2022-12-07T04:21:41;13.33;;;10.83;;
12892;SDS011;6514;48.606;9.222;2022-12-07T04:24:08;12.90;;;10.33;;
12892;SDS011;6514;48.606;9.222;2022-12-07T04:26:35;14.07;;;11.10;;
12892;SDS011;6514;48.606;9.222;2022-12-07T04:29:02;13.13;;;10.37;;
12892;SDS011;6514;48.606;9.222;2022-12-07T04:31:29;13.80;;;11.37;;
12892;SDS011;6514;48.606;9.222;2022-12-07T04:33:56;15.87;;;11.80;;
12892;SDS011;6514;48.606;9.222;2022-12-07T04:36:24;18.53;;;14.00;;
12892;SDS011;6514;48.606;9.222;2022-12-07T04:38:52;18.77;;;14.00;;
12892;SDS011;6514;48.606;9.222;2022-12-07T04:41:20;17.63;;;13.50;;
12892;SDS011;6514;48.606;9.222;2022-12-07T04:43:52;29.73;;;21.67;;
12892;SDS011;6514;48.606;9.222;2022-12-07T04:46:20;29.83;;;21.37;;
12892;SDS011;6514;48.606;9.222;2022-12-07T04:48:46;27.73;;;19.50;;
12892;SDS011;6514;48.606;9.222;2022-12-07T04:51:14;25.00;;;18.40;;
12892;SDS011;6514;48.606;9.222;2022-12-07T04:53:46;20.83;;;17.03;;
12892;SDS011;6514;48.606;9.222;2022-12-07T04:56:13;27.33;;;20.33;;
12892;SDS011;6514;48.606;9.222;2022-12-07T04:58:40;29.10;;;20.40;;
12892;SDS011;6514;48.606;9.222;2022-12-07T05:01:07;23.30;;;17.20;;
12892;SDS011;6514;48.606;9.222;2022-12-07T05:03:34;26.20;;;17.03;;
12892;SDS011;6514;48.606;9.222;2022-12-07T05:06:02;21.70;;;15.33;;
12892;SDS011;6514;48.606;9.222;2022-12-07T05:08:29;17.37;;;12.17;;
12892;SDS011;6514;48.606;9.222;2022-12-07T05:10:58;12.23;;;10.27;;
12892;SDS011;6514;48.606;9.222;2022-12-07T05:13:24;12.93;;;10.17;;
12892;SDS011;6514;48.606;9.222;2022-12-07T05:15:51;14.43;;;10.27;;
12892;SDS011;6514;48.606;9.222;2022-12-07T05:18:18;13.67;;;10.30;;
12892;SDS011;6514;48.606;9.222;2022-12-07T05:20:45;11.20;;;9.93;;
12892;SDS011;6514;48.606;9.222;2022-12-07T05:23:12;11.13;;;9.33;;
12892;SDS011;6514;48.606;9.222;2022-12-07T05:25:39;11.70;;;9.43;;
12892;SDS011;6514;48.606;9.222;2022-12-07T05:28:07;12.40;;;9.40;;
12892;SDS011;6514;48.606;9.222;2022-12-07T05:30:34;13.73;;;10.67;;
12892;SDS011;6514;48.606;9.222;2022-12-07T05:33:01;15.73;;;12.03;;
12892;SDS011;6514;48.606;9.222;2022-12-07T05:35:30;16.90;;;12.33;;
12892;SDS011;6514;48.606;9.222;2022-12-07T05:37:57;13.90;;;11.03;;
12892;SDS011;6514;48.606;9.222;2022-12-07T05:40:24;13.03;;;10.27;;
12892;SDS011;6514;48.606;9.222;2022-12-07T05:42:50;13.60;;;10.20;;
12892;SDS011;6514;48.606;9.222;2022-12-07T05:45:18;15.07;;;11.30;;
12892;SDS011;6514;48.606;9.222;2022-12-07T05:47:45;14.63;;;10.90;;
12892;SDS011;6514;48.606;9.222;2022-12-07T05:50:11;13.30;;;10.63;;
12892;SDS011;6514;48.606;9.222;2022-12-07T05:52:38;14.40;;;11.00;;
12892;SDS011;6514;48.606;9.222;2022-12-07T05:55:06;15.60;;;11.23;;
12892;SDS011;6514;48.606;9.222;2022-12-07T05:57:33;15.43;;;11.93;;
12892;SDS011;6514;48.606;9.222;2022-12-07T06:00:00;15.27;;;11.13;;
12892;SDS011;6514;48.606;9.222;2022-12-07T06:02:27;15.63;;;10.70;;
12892;SDS011;6514;48.606;9.222;2022-12-07T06:04:54;14.90;;;10.63;;
12892;SDS011;6514;48.606;9.222;2022-12-07T06:07:21;12.43;;;10.97;;
12892;SDS011;6514;48.606;9.222;2022-12-07T06:09:47;14.00;;;10.83;;
12892;SDS011;6514;48.606;9.222;2022-12-07T06:12:14;13.43;;;10.67;;
12892;SDS011;6514;48.606;9.222;2022-12-07T06:14:59;14.13;;;10.63;;
12892;SDS011;6514;48.606;9.222;2022-12-07T06:17:25;16.47;;;10.87;;
12892;SDS011;6514;48.606;9.222;2022-12-07T06:19:54;13.93;;;10.57;;
12892;SDS011;6514;48.606;9.222;2022-12-07T06:22:21;14.27;;;9.97;;
12892;SDS011;6514;48.606;9.222;2022-12-07T06:24:47;12.60;;;9.67;;
12892;SDS011;6514;48.606;9.222;2022-12-07T06:27:14;14.23;;;10.23;;
12892;SDS011;6514;48.606;9.222;2022-12-07T06:29:41;14.47;;;10.73;;
12892;SDS011;6514;48.606;9.222;2022-12-07T06:32:08;12.30;;;8.60;;
12892;SDS011;6514;48.606;9.222;2022-12-07T06:34:36;14.37;;;10.27;;
12892;SDS011;6514;48.606;9.222;2022-12-07T06:37:03;12.27;;;8.67;;
12892;SDS011;6514;48.606;9.222;2022-12-07T06:39:30;12.87;;;8.73;;
12892;SDS011;6514;48.606;9.222;2022-12-07T06:41:57;13.60;;;9.73;;
12892;SDS011;6514;48.606;9.222;2022-12-07T06:44:24;15.87;;;10.33;;
12892;SDS011;6514;48.606;9.222;2022-12-07T06:46:51;13.17;;;9.23;;
12892;SDS011;6514;48.606;9.222;2022-12-07T06:49:18;12.63;;;8.83;;
12892;SDS011;6514;48.606;9.222;2022-12-07T06:51:47;12.17;;;8.93;;
12892;SDS011;6514;48.606;9.222;2022-12-07T06:54:14;11.50;;;8.67;;
12892;SDS011;6514;48.606;9.222;2022-12-07T06:56:42;10.83;;;8.60;;
12892;SDS011;6514;48.606;9.222;2022-12-07T06:59:09;12.87;;;9.20;;
12892;SDS011;6514;48.606;9.222;2022-12-07T07:01:36;12.27;;;9.27;;
12892;SDS011;6514;48.606;9.222;2022-12-07T07:04:03;14.63;;;10.17;;
12892;SDS011;6514;48.606;9.222;2022-12-07T07:06:30;14.17;;;10.53;;
12892;SDS011;6514;48.606;9.222;2022-12-07T07:08:58;11.77;;;9.33;;
12892;SDS011;6514;48.606;9.222;2022-12-07T07:11:25;12.37;;;9.13;;
12892;SDS011;6514;48.606;9.222;2022-12-07T07:13:52;11.93;;;9.03;;
12892;SDS011;6514;48.606;9.222;2022-12-07T07:16:22;11.90;;;8.47;;
12892;SDS011;6514;48.606;9.222;2022-12-07T07:18:49;11.20;;;8.53;;
12892;SDS011;6514;48.606;9.222;2022-12-07T07:21:16;9.90;;;7.67;;
12892;SDS011;6514;48.606;9.222;2022-12-07T07:23:43;8.50;;;6.63;;
12892;SDS011;6514;48.606;9.222;2022-12-07T07:26:11;8.97;;;7.33;;
12892;SDS011;6514;48.606;9.222;2022-12-07T07:28:38;7.67;;;6.83;;
12892;SDS011;6514;48.606;9.222;2022-12-07T07:31:05;8.80;;;6.70;;
12892;SDS011;6514;48.606;9.222;2022-12-07T07:33:32;8.83;;;6.77;;
12892;SDS011;6514;48.606;9.222;2022-12-07T07:35:59;8.40;;;7.37;;
12892;SDS011;6514;48.606;9.222;2022-12-07T07:38:25;9.83;;;7.77;;
12892;SDS011;6514;48.606;9.222;2022-12-07T07:40:53;9.80;;;7.60;;
12892;SDS011;6514;48.606;9.222;2022-12-07T07:43:21;10.13;;;8.13;;
12892;SDS011;6514;48.606;9.222;2022-12-07T07:45:48;10.33;;;8.03;;
12892;SDS011;6514;48.606;9.222;2022-12-07T07:48:15;10.23;;;7.57;;
12892;SDS011;6514;48.606;9.222;2022-12-07T07:50:41;9.70;;;8.27;;
12892;SDS011;6514;48.606;9.222;2022-12-07T07:53:08;10.47;;;8.40;;
12892;SDS011;6514;48.606;9.222;2022-12-07T07:55:35;9.53;;;7.83;;
12892;SDS011;6514;48.606;9.222;2022-12-07T07:58:02;9.03;;;7.60;;
12892;SDS011;6514;48.606;9.222;2022-12-07T08:00:30;9.33;;;7.83;;
12892;SDS011;6514;48.606;9.222;2022-12-07T08:02:57;9.60;;;7.27;;
12892;SDS011;6514;48.606;9.222;2022-12-07T08:05:24;9.23;;;6.90;;
12892;SDS011;6514;48.606;9.222;2022-12-07T08:07:51;10.93;;;8.80;;
12892;SDS011;6514;48.606;9.222;2022-12-07T08:10:18;10.53;;;7.53;;
12892;SDS011;6514;48.606;9.222;2022-12-07T08:12:45;10.00;;;8.03;;
12892;SDS011;6514;48.606;9.222;2022-12-07T08:15:30;11.27;;;7.83;;
12892;SDS011;6514;48.606;9.222;2022-12-07T08:17:57;10.43;;;7.33;;
12892;SDS011;6514;48.606;9.222;2022-12-07T08:20:25;8.37;;;7.00;;
12892;SDS011;6514;48.606;9.222;2022-12-07T08:22:52;10.43;;;8.70;;
12892;SDS011;6514;48.606;9.222;2022-12-07T08:25:19;11.27;;;9.60;;
12892;SDS011;6514;48.606;9.222;2022-12-07T08:27:47;11.87;;;9.87;;
12892;SDS011;6514;48.606;9.222;2022-12-07T08:30:14;11.50;;;9.33;;
12892;SDS011;6514;48.606;9.222;2022-12-07T08:32:43;10.00;;;8.60;;
12892;SDS011;6514;48.606;9.222;2022-12-07T08:35:10;10.53;;;8.53;;
12892;SDS011;6514;48.606;9.222;2022-12-07T08:37:38;17.63;;;12.07;;
12892;SDS011;6514;48.606;9.222;2022-12-07T08:40:06;27.03;;;16.13;;
12892;SDS011;6514;48.606;9.222;2022-12-07T08:42:34;15.63;;;10.90;;
12892;SDS011;6514;48.606;9.222;2022-12-07T08:45:05;13.10;;;9.63;;
12892;SDS011;6514;48.606;9.222;2022-12-07T08:47:33;11.13;;;8.73;;
12892;SDS011;6514;48.606;9.222;2022-12-07T08:50:04;11.30;;;9.20;;
12892;SDS011;6514;48.606;9.222;2022-12-07T08:52:33;10.17;;;8.90;;
12892;SDS011;6514;48.606;9.222;2022-12-07T08:55:00;9.73;;;8.13;;
12892;SDS011;6514;48.606;9.222;2022-12-07T08:57:29;11.03;;;8.13;;
12892;SDS011;6514;48.606;9.222;2022-12-07T08:59:56;9.20;;;8.13;;
12892;SDS011;6514;48.606;9.222;2022-12-07T09:02:24;10.13;;;8.10;;
12892;SDS011;6514;48.606;9.222;2022-12-07T09:04:51;11.07;;;8.97;;
12892;SDS011;6514;48.606;9.222;2022-12-07T09:07:19;11.40;;;9.17;;
12892;SDS011;6514;48.606;9.222;2022-12-07T09:09:46;10.60;;;8.60;;
12892;SDS011;6514;48.606;9.222;2022-12-07T09:12:13;10.47;;;8.90;;
12892;SDS011;6514;48.606;9.222;2022-12-07T09:14:40;9.77;;;8.27;;
12892;SDS011;6514;48.606;9.222;2022-12-07T09:17:07;11.70;;;8.73;;
12892;SDS011;6514;48.606;9.222;2022-12-07T09:19:34;9.63;;;8.10;;
12892;SDS011;6514;48.606;9.222;2022-12-07T09:22:02;9.23;;;8.10;;
12892;SDS011;6514;48.606;9.222;2022-12-07T09:24:32;10.40;;;8.80;;
12892;SDS011;6514;48.606;9.222;2022-12-07T09:26:59;10.80;;;8.27;;
12892;SDS011;6514;48.606;9.222;2022-12-07T09:29:26;10.13;;;8.27;;
12892;SDS011;6514;48.606;9.222;2022-12-07T09:31:52;10.60;;;8.07;;
12892;SDS011;6514;48.606;9.222;2022-12-07T09:34:19;11.83;;;8.03;;
12892;SDS011;6514;48.606;9.222;2022-12-07T09:36:46;11.30;;;7.40;;
12892;SDS011;6514;48.606;9.222;2022-12-07T09:39:13;9.07;;;7.50;;
12892;SDS011;6514;48.606;9.222;2022-12-07T09:41:42;8.97;;;7.27;;
12892;SDS011;6514;48.606;9.222;2022-12-07T09:44:11;8.30;;;6.90;;
12892;SDS011;6514;48.606;9.222;2022-12-07T09:46:40;7.23;;;6.53;;
12892;SDS011;6514;48.606;9.222;2022-12-07T09:49:10;7.27;;;6.20;;
12892;SDS011;6514;48.606;9.222;2022-12-07T09:51:40;7.13;;;6.43;;
12892;SDS011;6514;48.606;9.222;2022-12-07T09:54:07;9.13;;;7.30;;
12892;SDS011;6514;48.606;9.222;2022-12-07T09:56:37;8.77;;;7.07;;
12892;SDS011;6514;48.606;9.222;2022-12-07T09:59:06;9.10;;;7.37;;
12892;SDS011;6514;48.606;9.222;2022-12-07T10:01:39;8.97;;;6.23;;
12892;SDS011;6514;48.606;9.222;2022-12-07T10:04:13;7.93;;;6.87;;
12892;SDS011;6514;48.606;9.222;2022-12-07T10:06:44;7.33;;;6.63;;
12892;SDS011;6514;48.606;9.222;2022-12-07T10:09:13;7.33;;;6.53;;
12892;SDS011;6514;48.606;9.222;2022-12-07T10:11:58;6.23;;;5.50;;
12892;SDS011;6514;48.606;9.222;2022-12-07T10:14:28;7.27;;;6.30;;
12892;SDS011;6514;48.606;9.222;2022-12-07T10:16:56;7.77;;;6.83;;
12892;SDS011;6514;48.606;9.222;2022-12-07T10:19:24;9.03;;;7.03;;
12892;SDS011;6514;48.606;9.222;2022-12-07T10:21:59;7.10;;;6.40;;
12892;SDS011;6514;48.606;9.222;2022-12-07T10:24:27;7.70;;;5.97;;
12892;SDS011;6514;48.606;9.222;2022-12-07T10:26:54;8.90;;;5.97;;
12892;SDS011;6514;48.606;9.222;2022-12-07T10:29:22;6.70;;;5.60;;
12892;SDS011;6514;48.606;9.222;2022-12-07T10:31:52;7.87;;;5.73;;
12892;SDS011;6514;48.606;9.222;2022-12-07T10:34:23;6.13;;;5.43;;
12892;SDS011;6514;48.606;9.222;2022-12-07T10:36:51;7.27;;;6.03;;
12892;SDS011;6514;48.606;9.222;2022-12-07T10:39:19;7.80;;;6.40;;
12892;SDS011;6514;48.606;9.222;2022-12-07T10:41:54;6.97;;;5.60;;
12892;SDS011;6514;48.606;9.222;2022-12-07T10:44:22;6.63;;;5.80;;
12892;SDS011;6514;48.606;9.222;2022-12-07T10:46:57;6.10;;;5.10;;
12892;SDS011;6514;48.606;9.222;2022-12-07T10:49:55;7.03;;;4.90;;
12892;SDS011;6514;48.606;9.222;2022-12-07T10:53:06;5.57;;;5.07;;
12892;SDS011;6514;48.606;9.222;2022-12-07T10:55:52;6.97;;;5.03;;
12892;SDS011;6514;48.606;9.222;2022-12-07T10:58:31;7.80;;;5.63;;
12892;SDS011;6514;48.606;9.222;2022-12-07T11:01:11;5.90;;;5.30;;
12892;SDS011;6514;48.606;9.222;2022-12-07T11:03:50;5.97;;;5.23;;
12892;SDS011;6514;48.606;9.222;2022-12-07T11:06:45;6.37;;;5.13;;
12892;SDS011;6514;48.606;9.222;2022-12-07T11:09:24;7.87;;;5.73;;
12892;SDS011;6514;48.606;9.222;2022-12-07T11:12:15;7.33;;;5.40;;
12892;SDS011;6514;48.606;9.222;2022-12-07T11:14:51;5.97;;;5.37;;
12892;SDS011;6514;48.606;9.222;2022-12-07T11:17:24;6.00;;;5.40;;
12892;SDS011;6514;48.606;9.222;2022-12-07T11:20:04;6.60;;;5.90;;
12892;SDS011;6514;48.606;9.222;2022-12-07T11:22:48;10.30;;;8.00;;
12892;SDS011;6514;48.606;9.222;2022-12-07T11:25:23;11.10;;;7.13;;
12892;SDS011;6514;48.606;9.222;2022-12-07T11:28:02;9.10;;;6.63;;
12892;SDS011;6514;48.606;9.222;2022-12-07T11:30:38;18.37;;;10.33;;
12892;SDS011;6514;48.606;9.222;2022-12-07T11:33:15;14.27;;;9.95;;
12892;SDS011;6514;48.606;9.222;2022-12-07T11:35:51;11.00;;;7.80;;
12892;SDS011;6514;48.606;9.222;2022-12-07T11:38:26;6.70;;;5.40;;
12892;SDS011;6514;48.606;9.222;2022-12-07T11:41:02;6.60;;;4.80;;
12892;SDS011;6514;48.606;9.222;2022-12-07T11:43:41;6.47;;;5.73;;
12892;SDS011;6514;48.606;9.222;2022-12-07T11:46:18;7.47;;;6.13;;
12892;SDS011;6514;48.606;9.222;2022-12-07T11:48:50;8.93;;;5.90;;
12892;SDS011;6514;48.606;9.222;2022-12-07T11:51:22;7.40;;;6.30;;
12892;SDS011;6514;48.606;9.222;2022-12-07T11:53:52;8.93;;;6.30;;
12892;SDS011;6514;48.606;9.222;2022-12-07T11:56:23;6.90;;;5.80;;
12892;SDS011;6514;48.606;9.222;2022-12-07T11:58:53;6.63;;;5.40;;
12892;SDS011;6514;48.606;9.222;2022-12-07T12:01:26;7.13;;;5.60;;
12892;SDS011;6514;48.606;9.222;2022-12-07T12:04:01;6.33;;;5.67;;
12892;SDS011;6514;48.606;9.222;2022-12-07T12:06:34;7.47;;;6.10;;
12892;SDS011;6514;48.606;9.222;2022-12-07T12:09:02;8.87;;;7.50;;
12892;SDS011;6514;48.606;9.222;2022-12-07T12:11:39;6.47;;;5.73;;
12892;SDS011;6514;48.606;9.222;2022-12-07T12:14:41;7.80;;;6.83;;
12892;SDS011;6514;48.606;9.222;2022-12-07T12:17:19;22.33;;;14.97;;
12892;SDS011;6514;48.606;9.222;2022-12-07T12:20:05;26.20;;;15.47;;
12892;SDS011;6514;48.606;9.222;2022-12-07T12:22:46;6.57;;;5.70;;
12892;SDS011;6514;48.606;9.222;2022-12-07T12:25:20;26.87;;;14.70;;
12892;SDS011;6514;48.606;9.222;2022-12-07T12:27:50;9.27;;;5.83;;
12892;SDS011;6514;48.606;9.222;2022-12-07T12:30:25;18.17;;;12.47;;
12892;SDS011;6514;48.606;9.222;2022-12-07T12:33:06;8.20;;;7.00;;
12892;SDS011;6514;48.606;9.222;2022-12-07T12:35:41;24.30;;;15.57;;
12892;SDS011;6514;48.606;9.222;2022-12-07T12:38:26;9.23;;;7.60;;
12892;SDS011;6514;48.606;9.222;2022-12-07T12:40:56;8.33;;;7.20;;
12892;SDS011;6514;48.606;9.222;2022-12-07T12:55:15;9.73;;;7.80;;
12892;SDS011;6514;48.606;9.222;2022-12-07T12:57:46;8.63;;;7.57;;
12892;SDS011;6514;48.606;9.222;2022-12-07T13:00:34;6.73;;;5.70;;
12892;SDS011;6514;48.606;9.222;2022-12-07T13:03:01;6.80;;;5.50;;
12892;SDS011;6514;48.606;9.222;2022-12-07T13:05:28;7.20;;;6.07;;
12892;SDS011;6514;48.606;9.222;2022-12-07T13:07:57;6.23;;;5.33;;
12892;SDS011;6514;48.606;9.222;2022-12-07T13:10:39;7.53;;;5.53;;
12892;SDS011;6514;48.606;9.222;2022-12-07T13:25:19;6.07;;;5.20;;
12892;SDS011;6514;48.606;9.222;2022-12-07T13:28:00;5.90;;;5.30;;
12892;SDS011;6514;48.606;9.222;2022-12-07T13:30:38;6.83;;;5.03;;
12892;SDS011;6514;48.606;9.222;2022-12-07T13:33:11;10.67;;;7.87;;
12892;SDS011;6514;48.606;9.222;2022-12-07T13:35:39;10.73;;;6.60;;
12892;SDS011;6514;48.606;9.222;2022-12-07T13:38:15;7.27;;;5.73;;
12892;SDS011;6514;48.606;9.222;2022-12-07T13:40:59;8.70;;;6.43;;
12892;SDS011;6514;48.606;9.222;2022-12-07T13:43:28;8.67;;;6.17;;
12892;SDS011;6514;48.606;9.222;2022-12-07T13:45:56;6.07;;;5.30;;
12892;SDS011;6514;48.606;9.222;2022-12-07T13:48:24;5.97;;;5.07;;
12892;SDS011;6514;48.606;9.222;2022-12-07T13:50:57;6.60;;;5.13;;
12892;SDS011;6514;48.606;9.222;2022-12-07T13:53:26;7.17;;;5.77;;
12892;SDS011;6514;48.606;9.222;2022-12-07T13:55:55;6.50;;;4.93;;
12892;SDS011;6514;48.606;9.222;2022-12-07T13:58:23;6.60;;;5.43;;
12892;SDS011;6514;48.606;9.222;2022-12-07T14:00:51;5.83;;;5.10;;
12892;SDS011;6514;48.606;9.222;2022-12-07T14:03:25;6.37;;;4.93;;
12892;SDS011;6514;48.606;9.222;2022-12-07T14:09:08;9.13;;;5.50;;
12892;SDS011;6514;48.606;9.222;2022-12-07T14:11:42;5.20;;;4.70;;
12892;SDS011;6514;48.606;9.222;2022-12-07T14:14:10;10.70;;;5.47;;
12892;SDS011;6514;48.606;9.222;2022-12-07T14:16:54;5.53;;;4.53;;
12892;SDS011;6514;48.606;9.222;2022-12-07T14:19:40;5.30;;;3.83;;
12892;SDS011;6514;48.606;9.222;2022-12-07T14:22:26;4.77;;;4.13;;
12892;SDS011;6514;48.606;9.222;2022-12-07T14:25:11;4.50;;;3.93;;
12892;SDS011;6514;48.606;9.222;2022-12-07T14:27:49;5.73;;;4.03;;
12892;SDS011;6514;48.606;9.222;2022-12-07T14:30:20;4.27;;;3.73;;
12892;SDS011;6514;48.606;9.222;2022-12-07T14:32:50;5.97;;;3.47;;
12892;SDS011;6514;48.606;9.222;2022-12-07T14:35:19;4.07;;;3.63;;
12892;SDS011;6514;48.606;9.222;2022-12-07T14:37:46;4.63;;;3.47;;
12892;SDS011;6514;48.606;9.222;2022-12-07T14:40:16;3.33;;;3.03;;
12892;SDS011;6514;48.606;9.222;2022-12-07T14:42:44;3.10;;;2.80;;
12892;SDS011;6514;48.606;9.222;2022-12-07T14:45:13;3.50;;;2.30;;
12892;SDS011;6514;48.606;9.222;2022-12-07T14:47:42;2.60;;;2.40;;
12892;SDS011;6514;48.606;9.222;2022-12-07T14:50:12;2.60;;;2.40;;
12892;SDS011;6514;48.606;9.222;2022-12-07T14:52:41;3.93;;;2.80;;
12892;SDS011;6514;48.606;9.222;2022-12-07T14:55:13;2.60;;;2.30;;
12892;SDS011;6514;48.606;9.222;2022-12-07T14:57:49;2.40;;;2.23;;
12892;SDS011;6514;48.606;9.222;2022-12-07T15:00:16;2.53;;;2.33;;
12892;SDS011;6514;48.606;9.222;2022-12-07T15:02:44;2.93;;;2.33;;
12892;SDS011;6514;48.606;9.222;2022-12-07T15:05:14;3.60;;;2.50;;
12892;SDS011;6514;48.606;9.222;2022-12-07T15:07:41;2.50;;;2.30;;
12892;SDS011;6514;48.606;9.222;2022-12-07T15:10:13;2.83;;;2.63;;
12892;SDS011;6514;48.606;9.222;2022-12-07T15:12:41;3.73;;;3.40;;
12892;SDS011;6514;48.606;9.222;2022-12-07T15:15:09;4.13;;;2.97;;
12892;SDS011;6514;48.606;9.222;2022-12-07T15:17:35;3.73;;;2.87;;
12892;SDS011;6514;48.606;9.222;2022-12-07T15:20:03;3.10;;;2.80;;
12892;SDS011;6514;48.606;9.222;2022-12-07T15:22:32;2.97;;;2.67;;
12892;SDS011;6514;48.606;9.222;2022-12-07T15:24:59;2.83;;;2.63;;
12892;SDS011;6514;48.606;9.222;2022-12-07T15:27:26;3.30;;;3.00;;
12892;SDS011;6514;48.606;9.222;2022-12-07T15:29:53;3.40;;;3.10;;
12892;SDS011;6514;48.606;9.222;2022-12-07T15:32:20;3.10;;;2.80;;
12892;SDS011;6514;48.606;9.222;2022-12-07T15:34:48;4.13;;;2.70;;
12892;SDS011;6514;48.606;9.222;2022-12-07T15:37:15;3.20;;;3.00;;
12892;SDS011;6514;48.606;9.222;2022-12-07T15:39:44;2.70;;;2.50;;